MRS weather

Marseille Provence Airport
Marseille, Provence-Alpes-Côte-d'Azur, France

Public forecast

Using degrees Celsius for public forecast. Weather courtesy of forecast.io.

Current aviation weather report (METAR) for Marseille Provence Airport

Retrieved 2019/10/15 06:30 UTC (1 hour ago):

LFML 150630Z AUTO 20004KT 160V230 8000 2700 RA FEW017/// SCT064/// BKN076/// ///TCU 18/16 Q1010 TEMPO 13025G40KT 1500 TSRA BR BKN010CB

Aviation forecast (TAF) for Marseille Provence Airport

Retrieved 2019/10/15 09:25 UTC (0 seconds ago):

TAF LFML 150800Z 1509/1615 25010KT 9999 -RA FEW033 BKN054 TX21/1615Z TN10/1606Z BECMG 1509/1510 30015KT BECMG 1521/1522 30010KT BECMG 1607/1608 VRB05KT